Time;durP1;ratioP1;P1;durP2;ratioP2;P2;SDS_P1;SDS_P2;PMS_P1;PMS_P2;Temp;Humidity;BMP_temperature;BMP_pressure;BME280_temperature;BME280_humidity;BME280_pressure;Samples;Min_cycle;Max_cycle;Signal;HPM_P1;HPM_P2
2021/11/09 00:00:40;;;;;;;71.67;44.00;;;;;;;6.22;81.52;95033.23;1706640;83;21808;-56
2021/11/09 00:03:09;;;;;;;69.30;43.13;;;;;;;6.18;81.63;95031.72;1625654;86;21105;-55
2021/11/09 00:05:47;;;;;;;70.87;43.08;;;;;;;6.17;81.89;95035.64;1674313;85;21055;-59
2021/11/09 00:08:12;;;;;;;71.10;43.08;;;;;;;6.14;81.95;95036.47;1659697;85;20959;-56
2021/11/09 00:10:36;;;;;;;68.85;39.27;;;;;;;6.16;82.16;95036.83;1678634;85;21530;-57
2021/11/09 00:13:04;;;;;;;72.58;42.67;;;;;;;6.18;82.07;95044.02;1680183;84;21059;-57
2021/11/09 00:15:32;;;;;;;75.25;42.55;;;;;;;6.20;82.04;95045.74;1673195;85;21019;-56
2021/11/09 00:18:01;;;;;;;76.33;43.30;;;;;;;6.19;82.11;95044.95;1659455;84;21009;-57
2021/11/09 00:20:30;;;;;;;76.22;44.83;;;;;;;6.20;82.30;95043.80;1659590;85;21074;-56
2021/11/09 00:22:57;;;;;;;79.17;45.58;;;;;;;6.21;82.34;95044.55;1680170;83;21456;-56
2021/11/09 00:25:24;;;;;;;70.90;42.17;;;;;;;6.20;82.29;95043.01;1677946;85;21544;-57
2021/11/09 00:27:52;;;;;;;58.42;35.05;;;;;;;6.20;82.36;95044.38;1680077;84;21003;-57
2021/11/09 00:30:23;;;;;;;63.28;36.65;;;;;;;6.19;82.34;95048.30;1680557;85;21575;-56
2021/11/09 00:32:51;;;;;;;74.22;42.75;;;;;;;6.18;82.35;95050.84;1681051;84;21109;-56
2021/11/09 00:35:22;;;;;;;87.25;50.28;;;;;;;6.13;82.57;95049.34;1679815;85;21003;-58
2021/11/09 00:37:49;;;;;;;76.33;44.70;;;;;;;6.11;82.72;95046.25;1674281;85;21772;-56
2021/11/09 00:40:18;;;;;;;80.72;45.33;;;;;;;6.11;83.00;95038.63;1676702;85;21082;-56
2021/11/09 00:42:45;;;;;;;77.65;45.83;;;;;;;6.10;82.95;95036.51;1677197;84;21007;-61
2021/11/09 00:45:13;;;;;;;65.22;39.40;;;;;;;6.12;82.73;95038.84;1678871;85;21007;-56
2021/11/09 00:47:40;;;;;;;59.25;37.95;;;;;;;6.12;82.54;95041.58;1681430;85;21093;-56
2021/11/09 00:50:08;;;;;;;52.13;33.30;;;;;;;6.08;82.38;95033.42;1682364;85;22301;-56
2021/11/09 00:52:35;;;;;;;54.27;32.75;;;;;;;6.05;82.41;95028.00;1681234;84;20963;-56
2021/11/09 00:55:03;;;;;;;47.55;31.68;;;;;;;6.03;82.29;95034.47;1677351;85;21017;-56
2021/11/09 00:57:30;;;;;;;60.78;36.48;;;;;;;5.97;82.10;95041.58;1673831;85;21538;-56
2021/11/09 00:59:58;;;;;;;64.70;41.75;;;;;;;5.93;82.43;95041.61;1678063;85;20960;-56
2021/11/09 01:02:25;;;;;;;58.85;35.28;;;;;;;5.91;82.35;95046.71;1670154;85;21157;-57
2021/11/09 01:04:51;;;;;;;64.27;35.30;;;;;;;5.84;82.04;95041.93;1672764;84;21158;-56
2021/11/09 01:07:19;;;;;;;53.17;33.60;;;;;;;5.72;82.08;95042.44;1680293;85;21118;-57
2021/11/09 01:09:46;;;;;;;53.98;33.83;;;;;;;5.61;82.43;95041.80;1679036;85;20975;-57
2021/11/09 01:12:15;;;;;;;56.23;33.20;;;;;;;5.55;82.56;95041.48;1682103;85;21086;-57
2021/11/09 01:14:43;;;;;;;58.23;33.83;;;;;;;5.49;82.62;95041.75;1682066;85;20995;-57
2021/11/09 01:17:12;;;;;;;46.58;28.38;;;;;;;5.46;82.79;95043.14;1673466;85;21152;-57
2021/11/09 01:19:39;;;;;;;39.58;22.98;;;;;;;5.44;82.88;95033.23;1678395;84;21036;-56
2021/11/09 01:22:06;;;;;;;44.63;28.30;;;;;;;5.43;82.68;95039.87;1679454;84;20979;-57
2021/11/09 01:24:33;;;;;;;40.20;25.05;;;;;;;5.40;82.74;95044.78;1682236;85;21081;-57
2021/11/09 01:27:00;;;;;;;37.73;24.35;;;;;;;5.46;83.24;95032.23;1661595;85;21554;-57
2021/11/09 01:29:28;;;;;;;36.00;21.68;;;;;;;5.50;82.75;95038.41;1677634;84;21034;-56
2021/11/09 01:31:56;;;;;;;28.25;20.55;;;;;;;5.46;82.45;95031.63;1675833;85;21042;-57
2021/11/09 01:34:24;;;;;;;35.92;21.60;;;;;;;5.41;82.41;95034.05;1678317;85;21006;-56
2021/11/09 01:36:53;;;;;;;33.50;21.87;;;;;;;5.39;82.47;95039.14;1673010;85;21066;-55
2021/11/09 01:39:19;;;;;;;41.83;25.08;;;;;;;5.38;82.52;95043.05;1709182;83;21167;-57
2021/11/09 01:41:46;;;;;;;42.75;25.65;;;;;;;5.33;82.70;95040.75;1708631;83;21458;-57
2021/11/09 01:44:13;;;;;;;46.50;27.95;;;;;;;5.25;83.02;95046.11;1713863;83;21040;-57
2021/11/09 01:46:40;;;;;;;52.17;30.45;;;;;;;5.23;83.39;95043.02;1708193;83;21021;-55
2021/11/09 01:49:09;;;;;;;37.13;22.40;;;;;;;5.25;83.68;95044.14;1708273;83;20894;-57
2021/11/09 01:51:36;;;;;;;29.05;18.90;;;;;;;5.28;83.51;95052.11;1685926;84;21214;-56
2021/11/09 01:54:05;;;;;;;29.27;19.27;;;;;;;5.27;83.22;95048.59;1707203;83;21017;-57
2021/11/09 01:56:32;;;;;;;24.23;16.07;;;;;;;5.30;83.63;95054.63;1711148;83;21065;-57
2021/11/09 01:59:00;;;;;;;25.55;17.27;;;;;;;5.29;83.17;95052.30;1710709;83;21021;-57
2021/11/09 02:01:28;;;;;;;26.23;16.80;;;;;;;5.23;83.33;95046.31;1707628;83;21553;-57
2021/11/09 02:03:59;;;;;;;29.25;19.55;;;;;;;5.19;83.35;95047.70;1705322;83;21427;-57
2021/11/09 02:06:26;;;;;;;34.05;21.77;;;;;;;5.11;83.26;95055.03;1709733;83;21025;-56
2021/11/09 02:09:10;;;;;;;50.58;30.00;;;;;;;5.06;83.42;95057.59;1710330;83;20993;-56
2021/11/09 02:11:37;;;;;;;;;;;;;;;4.96;83.44;95053.00;1709313;83;21111;-57
2021/11/09 02:14:06;;;;;;;48.00;28.07;;;;;;;4.92;83.93;95053.63;1712683;83;20185;-56
2021/11/09 02:16:33;;;;;;;42.38;23.87;;;;;;;4.91;84.08;95049.36;1711891;83;21137;-54
2021/11/09 02:19:01;;;;;;;38.45;23.92;;;;;;;4.93;84.03;95053.81;1706400;83;21029;-57
2021/11/09 02:21:29;;;;;;;40.00;23.30;;;;;;;4.91;84.03;95049.94;1713388;82;20982;-56
2021/11/09 02:23:55;;;;;;;42.60;24.43;;;;;;;4.93;84.22;95052.45;1711125;83;21520;-55
2021/11/09 02:26:23;;;;;;;37.80;24.65;;;;;;;4.96;84.13;95057.70;1708647;83;21069;-56
2021/11/09 02:28:54;;;;;;;46.53;30.20;;;;;;;4.99;84.40;95061.73;1706915;83;21549;-56
2021/11/09 02:31:22;;;;;;;47.33;25.43;;;;;;;4.99;84.35;95051.44;1707670;83;21125;-56
2021/11/09 02:33:48;;;;;;;38.25;21.25;;;;;;;4.95;84.45;95059.63;1710337;83;20965;-55
2021/11/09 02:36:19;;;;;;;32.30;20.48;;;;;;;4.96;84.66;95060.42;1715958;83;21458;-55
2021/11/09 02:38:47;;;;;;;31.45;20.85;;;;;;;4.99;84.51;95057.64;1709552;83;20969;-56
2021/11/09 02:41:14;;;;;;;34.70;23.22;;;;;;;5.07;84.55;95060.50;1707470;83;21120;-56
2021/11/09 02:43:41;;;;;;;25.17;17.12;;;;;;;5.18;84.79;95059.04;1707425;83;21066;-55
2021/11/09 02:48:58;;;;;;;22.32;15.88;;;;;;;5.26;83.68;95059.32;1706775;82;21664;-57
2021/11/09 02:51:24;;;;;;;25.95;15.95;;;;;;;5.22;83.61;95057.83;1709238;82;20942;-56
2021/11/09 02:53:56;;;;;;;24.00;15.03;;;;;;;5.23;83.62;95062.86;1711600;82;21264;-60
2021/11/09 02:56:31;;;;;;;25.80;15.68;;;;;;;5.32;83.47;95064.53;1710953;83;20986;-56
2021/11/09 03:01:22;;;;;;;19.60;14.28;;;;;;;5.47;83.03;95073.34;1709750;83;20989;-56
2021/11/09 03:03:54;;;;;;;20.50;13.80;;;;;;;5.54;82.58;95069.94;1711977;83;20937;-55
2021/11/09 03:06:27;;;;;;;22.35;13.45;;;;;;;5.61;82.37;95073.19;1712264;83;21152;-56
2021/11/09 03:09:13;;;;;;;21.52;13.55;;;;;;;5.72;81.84;95073.25;1712165;83;21485;-56
2021/11/09 03:11:39;;;;;;;19.77;13.22;;;;;;;5.79;81.27;95080.61;1712071;83;21434;-57
2021/11/09 03:14:05;;;;;;;21.80;13.10;;;;;;;5.81;80.77;95087.19;1703899;83;21597;-56
2021/11/09 03:16:37;;;;;;;23.80;14.78;;;;;;;5.76;80.48;95082.77;1708855;83;21500;-56
2021/11/09 03:44:21;;;;;;;40.08;23.25;;;;;;;6.12;79.28;95102.42;1705970;82;20961;-56
2021/11/09 03:46:59;;;;;;;40.25;22.20;;;;;;;6.08;79.37;95103.06;1684539;83;21120;-57
2021/11/09 03:49:28;;;;;;;40.45;20.45;;;;;;;6.10;79.65;95101.27;1707102;83;20941;-56
2021/11/09 03:51:56;;;;;;;35.85;21.07;;;;;;;6.21;79.78;95101.92;1709178;83;20969;-56
2021/11/09 03:54:27;;;;;;;37.95;22.15;;;;;;;6.36;79.50;95097.81;1706444;83;21037;-56
2021/11/09 03:57:18;;;;;;;39.83;22.62;;;;;;;6.46;78.69;95100.98;1709956;83;21265;-57
2021/11/09 04:17:45;;;;;;;34.10;20.80;;;;;;;6.62;77.71;95128.47;1710701;82;21065;-57
2021/11/09 04:20:05;;;;;;;35.55;20.92;;;;;;;6.61;77.62;95132.39;1705458;83;21021;-56
2021/11/09 04:27:57;;;;;;;;;;;;;;;;;;;;;
2021/11/09 04:45:00;;;;;;;48.83;27.75;;;;;;;6.21;78.87;95122.41;1710182;83;20954;-57
2021/11/09 05:02:02;;;;;;;56.45;32.30;;;;;;;6.64;77.55;95138.40;1712590;83;20997;-57
2021/11/09 05:09:57;;;;;;;44.58;28.25;;;;;;;6.70;76.52;95145.73;1714946;82;21041;-56
2021/11/09 05:12:21;;;;;;;45.73;29.27;;;;;;;6.58;76.68;95146.31;1698222;83;21454;-56
2021/11/09 05:14:48;;;;;;;52.90;30.20;;;;;;;6.48;76.91;95153.29;1715529;82;22680;-59
2021/11/09 05:17:15;;;;;;;56.95;32.15;;;;;;;6.51;77.34;95153.83;1717290;82;21124;-56
2021/11/09 05:19:42;;;;;;;70.62;39.98;;;;;;;6.59;77.24;95162.10;1716799;82;21091;-57
2021/11/09 05:22:08;;;;;;;60.55;35.80;;;;;;;6.63;77.08;95159.52;1718006;82;20946;-58
2021/11/09 05:24:35;;;;;;;46.13;29.52;;;;;;;6.63;76.97;95168.29;1706987;83;21021;-63
2021/11/09 05:27:03;;;;;;;39.75;27.37;;;;;;;6.57;77.06;95167.21;1705687;83;21024;-61
2021/11/09 05:29:30;;;;;;;45.40;28.12;;;;;;;6.51;77.33;95162.79;1713950;83;21107;-60
2021/11/09 05:31:59;;;;;;;43.30;26.60;;;;;;;6.49;77.94;95173.97;1676317;83;21437;-59
2021/11/09 05:34:29;;;;;;;39.88;27.65;;;;;;;6.56;78.12;95183.43;1714275;83;21074;-56
2021/11/09 05:36:57;;;;;;;44.35;29.75;;;;;;;6.61;78.13;95186.48;1712878;83;21437;-58
2021/11/09 05:39:32;;;;;;;44.25;29.90;;;;;;;6.70;78.31;95189.47;1709791;83;20977;-58
2021/11/09 05:41:53;;;;;;;44.90;28.38;;;;;;;6.81;77.94;95198.89;1719309;82;21347;-59
2021/11/09 05:44:20;;;;;;;39.42;26.17;;;;;;;6.84;77.44;95199.44;1706488;82;21075;-58
2021/11/09 05:46:47;;;;;;;44.10;28.35;;;;;;;6.85;77.17;95203.75;1692170;83;21096;-57
2021/11/09 05:49:14;;;;;;;42.88;28.30;;;;;;;6.85;77.13;95220.91;1708744;83;21013;-57
2021/11/09 05:51:41;;;;;;;103.47;62.78;;;;;;;6.77;76.78;95221.41;1703523;82;21068;-57
2021/11/09 05:54:10;;;;;;;63.33;39.70;;;;;;;6.54;77.03;95223.46;1713962;83;21150;-57
2021/11/09 05:56:36;;;;;;;59.95;36.48;;;;;;;6.45;77.57;95234.70;1712539;83;21430;-56
2021/11/09 05:59:03;;;;;;;125.27;69.05;;;;;;;6.35;77.86;95238.35;1718617;82;21532;-58
2021/11/09 06:01:30;;;;;;;88.00;50.95;;;;;;;6.30;78.15;95242.91;1715349;82;21034;-57
2021/11/09 06:03:57;;;;;;;104.05;56.23;;;;;;;6.34;78.67;95245.00;1709643;83;21541;-58
2021/11/09 06:06:24;;;;;;;76.90;50.95;;;;;;;6.43;78.43;95243.91;1711706;82;21121;-61
2021/11/09 06:08:50;;;;;;;67.65;39.58;;;;;;;6.42;78.16;95251.92;1710378;84;21068;-61
2021/11/09 06:11:18;;;;;;;63.75;39.65;;;;;;;6.35;78.38;95247.31;1688560;83;21001;-63
2021/11/09 06:13:46;;;;;;;65.97;39.33;;;;;;;6.33;78.43;95248.91;1716739;83;20989;-62
2021/11/09 06:16:13;;;;;;;67.80;42.43;;;;;;;6.27;78.39;95253.26;1708357;82;21014;-61
2021/11/09 06:18:41;;;;;;;71.00;41.53;;;;;;;6.19;78.54;95261.36;1711676;83;21822;-62
2021/11/09 06:21:08;;;;;;;82.37;49.00;;;;;;;6.05;78.56;95269.69;1708785;83;20969;-62
2021/11/09 06:23:35;;;;;;;74.87;45.05;;;;;;;5.96;78.94;95277.59;1701143;82;21113;-62
2021/11/09 06:26:01;;;;;;;66.47;39.20;;;;;;;5.97;79.61;95278.53;1712235;83;21005;-64
2021/11/09 06:28:29;;;;;;;51.48;35.40;;;;;;;6.03;79.68;95289.80;1710055;83;20985;-63
2021/11/09 06:30:58;;;;;;;50.88;33.18;;;;;;;6.06;79.74;95300.70;1680356;83;21962;-63
2021/11/09 06:33:25;;;;;;;48.52;32.30;;;;;;;6.16;79.61;95305.87;1710093;83;21011;-63
2021/11/09 06:35:51;;;;;;;35.08;25.45;;;;;;;6.22;79.46;95303.67;1701176;83;20995;-61
2021/11/09 06:38:20;;;;;;;29.05;20.75;;;;;;;6.29;79.50;95307.69;1680212;83;21006;-62
2021/11/09 06:40:46;;;;;;;63.70;42.70;;;;;;;6.42;79.52;95312.04;1684350;83;21027;-62
2021/11/09 06:43:13;;;;;;;58.70;40.05;;;;;;;6.48;79.02;95315.91;1661399;84;21140;-63
2021/11/09 06:45:43;;;;;;;59.98;39.55;;;;;;;6.49;79.27;95318.20;1681448;83;21102;-65
2021/11/09 06:48:11;;;;;;;66.02;40.73;;;;;;;6.59;79.25;95328.84;1670077;83;21096;-63
2021/11/09 06:50:38;;;;;;;73.22;45.03;;;;;;;6.70;79.01;95328.91;1716851;82;20992;-62
2021/11/09 06:53:05;;;;;;;72.42;45.58;;;;;;;6.80;78.48;95323.13;1727104;82;21003;-64
2021/11/09 06:55:35;;;;;;;65.85;41.73;;;;;;;6.79;78.16;95325.68;1717773;82;22572;-61
2021/11/09 06:58:01;;;;;;;72.27;45.52;;;;;;;6.81;78.20;95330.15;1698176;82;21171;-64
2021/11/09 07:00:28;;;;;;;72.50;43.55;;;;;;;6.83;78.19;95338.14;1682122;82;21057;-64
2021/11/09 07:02:55;;;;;;;62.23;37.05;;;;;;;6.94;78.05;95343.48;1673099;82;21107;-62
2021/11/09 07:05:22;;;;;;;56.75;36.55;;;;;;;6.97;77.61;95344.03;1682696;83;21042;-64
2021/11/09 07:07:50;;;;;;;48.95;31.97;;;;;;;6.94;77.37;95347.58;1687535;83;21121;-64
2021/11/09 07:10:17;;;;;;;35.78;24.40;;;;;;;7.00;77.29;95348.09;1673838;83;22232;-66
2021/11/09 07:12:45;;;;;;;24.07;18.35;;;;;;;7.12;76.94;95357.14;1684265;83;21021;-64
2021/11/09 07:15:15;;;;;;;26.05;18.70;;;;;;;7.20;76.37;95360.75;1689332;82;21065;-79
2021/11/09 07:17:42;;;;;;;25.90;18.73;;;;;;;7.25;76.19;95363.02;1677780;83;22190;-63
2021/11/09 07:20:11;;;;;;;35.40;20.95;;;;;;;7.34;75.85;95366.63;1666843;82;22247;-63
2021/11/09 07:22:38;;;;;;;30.08;19.32;;;;;;;7.38;75.24;95362.62;1700067;81;20991;-65
2021/11/09 07:25:11;;;;;;;22.93;14.40;;;;;;;7.31;74.82;95360.61;1682545;82;20988;-66
2021/11/09 07:27:40;;;;;;;20.90;13.68;;;;;;;7.26;74.46;95367.87;1670068;82;21002;-63
2021/11/09 07:30:07;;;;;;;21.85;13.62;;;;;;;7.25;74.35;95364.39;1690793;81;21124;-71
2021/11/09 07:32:35;;;;;;;22.02;14.50;;;;;;;7.29;74.14;95376.06;1679394;82;21167;-70
2021/11/09 07:35:03;;;;;;;20.75;13.78;;;;;;;7.34;74.15;95378.33;1654398;83;21088;-67
2021/11/09 07:37:30;;;;;;;24.12;12.82;;;;;;;7.49;74.10;95376.20;1689384;81;21048;-64
2021/11/09 07:39:57;;;;;;;15.53;11.22;;;;;;;7.62;73.55;95387.55;1688835;81;21076;-63
2021/11/09 07:42:23;;;;;;;12.98;10.40;;;;;;;7.70;73.06;95391.72;1693100;82;21098;-65
2021/11/09 07:44:53;;;;;;;11.38;8.50;;;;;;;7.77;72.62;95388.91;1699709;81;21091;-65
2021/11/09 07:47:19;;;;;;;10.50;7.25;;;;;;;7.88;72.24;95405.94;1687819;82;22230;-65
2021/11/09 07:49:48;;;;;;;11.90;8.13;;;;;;;8.04;71.15;95404.72;1669999;82;22374;-62
2021/11/09 07:52:15;;;;;;;13.90;8.43;;;;;;;8.15;70.51;95401.82;1681737;82;21077;-63
2021/11/09 07:54:49;;;;;;;11.73;9.03;;;;;;;8.35;70.22;95404.86;1670158;82;21175;-62
2021/11/09 07:57:16;;;;;;;11.18;8.60;;;;;;;8.56;69.85;95407.23;1669428;82;21121;-61
2021/11/09 08:00:01;;;;;;;11.12;7.45;;;;;;;8.76;68.69;95410.80;1675961;82;21072;-60
2021/11/09 08:02:47;;;;;;;10.03;6.72;;;;;;;8.87;68.39;95414.14;1688131;81;21041;-62
2021/11/09 08:05:09;;;;;;;7.62;5.85;;;;;;;8.95;67.39;95405.94;1661207;83;21017;-62
2021/11/09 08:07:50;;;;;;;7.83;6.08;;;;;;;8.94;66.60;95405.77;1682245;81;22011;-64
2021/11/09 08:10:06;;;;;;;20.72;13.45;;;;;;;8.97;65.99;95410.41;1695876;81;21203;-60
2021/11/09 08:12:33;;;;;;;9.45;7.42;;;;;;;9.05;65.67;95420.08;1683312;81;21021;-61
2021/11/09 08:15:00;;;;;;;13.95;5.17;;;;;;;9.18;65.29;95419.61;1675164;82;21054;-62
2021/11/09 08:17:27;;;;;;;5.80;4.90;;;;;;;9.22;63.84;95412.10;1679095;82;22311;-64
2021/11/09 08:19:54;;;;;;;9.98;7.40;;;;;;;9.26;63.54;95416.31;1690290;82;21061;-64
2021/11/09 08:22:21;;;;;;;6.03;5.42;;;;;;;9.31;63.37;95421.91;1680590;81;21151;-64
2021/11/09 08:24:48;;;;;;;16.70;5.40;;;;;;;9.33;63.48;95422.27;1700243;81;21086;-60
2021/11/09 08:27:15;;;;;;;14.28;6.15;;;;;;;9.43;63.32;95423.42;1704866;81;21006;-62
2021/11/09 08:29:49;;;;;;;11.63;6.17;;;;;;;9.54;63.13;95428.11;1662925;81;21045;-64
2021/11/09 08:32:12;;;;;;;11.18;6.12;;;;;;;9.63;62.79;95430.29;1686280;81;21007;-61
2021/11/09 08:34:39;;;;;;;11.30;6.95;;;;;;;9.72;62.97;95438.14;1676885;82;22067;-64
2021/11/09 08:37:06;;;;;;;19.85;7.37;;;;;;;9.78;63.07;95440.55;1686804;82;20993;-65
2021/11/09 08:39:36;;;;;;;14.65;5.92;;;;;;;9.89;62.16;95434.82;1694535;82;21066;-62
2021/11/09 08:44:44;;;;;;;77.42;49.58;;;;;;;9.86;61.01;95448.83;1620004;84;21016;-59
2021/11/09 08:47:07;;;;;;;14.03;11.45;;;;;;;9.85;59.09;95444.54;1614582;84;21154;-66
2021/11/09 08:49:34;;;;;;;5.10;4.60;;;;;;;9.89;59.64;95439.73;1643750;84;21044;-61
2021/11/09 08:52:04;;;;;;;9.28;4.40;;;;;;;9.91;57.86;95449.70;1660574;83;21058;-60
2021/11/09 08:54:36;;;;;;;16.50;6.58;;;;;;;9.91;57.29;95459.91;1643844;83;21692;-64
2021/11/09 08:57:17;;;;;;;9.03;3.72;;;;;;;9.92;57.77;95464.20;1664997;84;21027;-63
2021/11/09 09:05:07;;;;;;;10.98;4.15;;;;;;;10.01;57.82;95468.53;1681363;82;21827;-63
2021/11/09 09:07:34;;;;;;;3.20;2.98;;;;;;;10.01;57.33;95474.03;1684013;82;21071;-61
2021/11/09 09:10:04;;;;;;;5.22;3.40;;;;;;;10.00;56.25;95468.36;1634326;83;21057;-62
2021/11/09 09:12:34;;;;;;;8.83;4.83;;;;;;;10.07;56.57;95472.35;1640943;83;21943;-63
2021/11/09 09:15:03;;;;;;;8.83;6.00;;;;;;;10.29;56.55;95471.46;1606487;83;21091;-63
2021/11/09 09:17:30;;;;;;;9.43;4.33;;;;;;;10.62;56.13;95476.39;1693407;82;21074;-63
2021/11/09 09:20:01;;;;;;;5.30;3.87;;;;;;;10.79;55.99;95476.73;1699443;82;20998;-65
2021/11/09 09:22:35;;;;;;;8.35;4.15;;;;;;;10.85;55.13;95481.91;1696493;81;21048;-60
2021/11/09 09:25:11;;;;;;;3.57;3.23;;;;;;;10.84;54.97;95481.72;1673310;81;21092;-58
2021/11/09 09:56:54;;;;;;;3.45;3.12;;;;;;;10.00;54.98;95484.86;1693085;81;22351;-62
2021/11/09 09:59:23;;;;;;;16.45;4.78;;;;;;;9.95;55.41;95483.98;1676171;82;21053;-64
2021/11/09 10:02:24;;;;;;;10.35;5.78;;;;;;;10.00;55.16;95486.23;1680703;82;21070;-61
2021/11/09 10:05:03;;;;;;;9.85;5.80;;;;;;;9.99;55.38;95484.06;1671590;82;22268;-62
2021/11/09 10:07:42;;;;;;;4.10;3.70;;;;;;;10.04;56.10;95489.12;1670067;82;20997;-62
2021/11/09 10:10:23;;;;;;;4.70;3.65;;;;;;;10.27;55.37;95486.83;1662149;82;21077;-62
2021/11/09 10:13:13;;;;;;;4.50;4.10;;;;;;;10.58;55.17;95485.33;1675701;83;21035;-63
2021/11/09 10:15:53;;;;;;;4.00;3.60;;;;;;;10.94;54.64;95487.57;1686430;81;21086;-62
2021/11/09 10:18:22;;;;;;;20.27;4.60;;;;;;;11.22;53.61;95497.88;1677673;82;22612;-62
2021/11/09 10:20:56;;;;;;;11.95;3.85;;;;;;;11.22;53.06;95493.75;1649791;83;21015;-60
2021/11/09 10:23:28;;;;;;;8.38;4.00;;;;;;;11.15;53.41;95500.05;1668088;83;21073;-62
2021/11/09 10:26:00;;;;;;;6.37;3.65;;;;;;;11.08;53.72;95498.23;1669029;83;22155;-62
2021/11/09 10:28:29;;;;;;;7.65;3.83;;;;;;;10.99;53.67;95506.94;1670053;81;21666;-62
2021/11/09 10:31:01;;;;;;;6.65;3.72;;;;;;;10.82;54.21;95499.27;1690192;81;21108;-63
2021/11/09 10:33:34;;;;;;;9.55;4.75;;;;;;;10.62;53.93;95509.41;1670785;82;20954;-62
2021/11/09 10:35:58;;;;;;;5.45;4.85;;;;;;;10.45;54.55;95511.37;1685728;82;20970;-63
2021/11/09 10:38:30;;;;;;;5.25;4.10;;;;;;;10.35;55.13;95515.74;1695837;82;21622;-62
2021/11/09 10:41:02;;;;;;;6.05;5.25;;;;;;;10.27;55.36;95518.45;1683605;83;21069;-63
2021/11/09 10:43:30;;;;;;;6.03;5.42;;;;;;;10.16;55.72;95527.55;1674349;82;21153;-63
2021/11/09 10:45:59;;;;;;;6.90;4.03;;;;;;;10.04;56.13;95524.06;1659634;83;21100;-62
2021/11/09 10:48:28;;;;;;;5.40;4.90;;;;;;;9.89;56.23;95527.69;1655786;82;21032;-64
2021/11/09 10:50:58;;;;;;;6.65;4.30;;;;;;;9.74;57.03;95523.66;1679563;81;21223;-63
2021/11/09 10:53:35;;;;;;;5.35;4.72;;;;;;;9.61;57.78;95519.98;1674657;82;21096;-62
2021/11/09 11:04:02;;;;;;;6.97;4.87;;;;;;;9.38;58.67;95525.53;1686878;82;21016;-62
2021/11/09 11:06:37;;;;;;;16.40;10.68;;;;;;;9.42;58.82;95530.35;1667362;81;21696;-62
2021/11/09 11:09:18;;;;;;;11.83;8.05;;;;;;;9.45;58.67;95539.73;1687864;81;21002;-62
2021/11/09 11:11:51;;;;;;;11.12;7.90;;;;;;;9.45;58.64;95536.98;1673801;82;21071;-61
2021/11/09 11:14:24;;;;;;;12.78;7.42;;;;;;;9.43;58.45;95539.38;1691741;82;21061;-61
2021/11/09 11:17:00;;;;;;;14.75;8.95;;;;;;;9.40;58.46;95545.72;1683826;81;21046;-61
2021/11/09 11:19:33;;;;;;;11.83;6.53;;;;;;;9.38;58.42;95551.62;1675119;81;21076;-63
2021/11/09 11:22:01;;;;;;;9.88;7.30;;;;;;;9.32;58.37;95552.52;1671729;82;21136;-63
2021/11/09 11:24:28;;;;;;;7.67;5.67;;;;;;;9.25;58.64;95556.77;1684593;81;21022;-62
2021/11/09 11:26:57;;;;;;;13.48;7.12;;;;;;;9.20;58.60;95558.59;1696270;83;21437;-63
2021/11/09 11:29:34;;;;;;;13.93;8.48;;;;;;;9.19;58.61;95569.41;1695266;83;21031;-62
2021/11/09 11:31:58;;;;;;;9.33;6.25;;;;;;;9.16;58.94;95570.24;1686358;82;21509;-62
2021/11/09 11:34:25;;;;;;;9.20;6.42;;;;;;;9.21;58.78;95572.53;1679743;83;21361;-62
2021/11/09 11:36:53;;;;;;;8.30;6.00;;;;;;;9.22;58.87;95571.34;1680766;83;21119;-62
2021/11/09 11:39:26;;;;;;;16.95;12.85;;;;;;;9.22;59.03;95574.08;1674027;83;21668;-61
2021/11/09 11:42:01;;;;;;;9.75;5.92;;;;;;;9.25;59.27;95580.11;1686479;82;21136;-63
2021/11/09 11:44:31;;;;;;;4.90;4.20;;;;;;;9.32;58.93;95580.77;1693804;83;21173;-62
2021/11/09 11:47:19;;;;;;;6.47;5.05;;;;;;;9.34;58.77;95587.19;1658270;83;21156;-63
2021/11/09 11:49:53;;;;;;;7.35;4.87;;;;;;;9.34;58.41;95583.08;1668770;84;21375;-63
2021/11/09 11:52:46;;;;;;;5.72;4.83;;;;;;;9.38;58.48;95594.77;1646211;84;20999;-63
2021/11/09 11:55:27;;;;;;;6.70;5.50;;;;;;;9.44;58.50;95584.88;1648884;85;21015;-61
2021/11/09 11:58:07;;;;;;;9.33;5.75;;;;;;;9.64;58.44;95584.31;1650131;85;21011;-62
2021/11/09 12:00:40;;;;;;;21.80;13.08;;;;;;;9.88;57.61;95583.84;1647593;85;21078;-64
2021/11/09 12:03:25;;;;;;;35.70;22.58;;;;;;;10.15;57.51;95585.12;1658569;84;21039;-63
2021/11/09 12:06:03;;;;;;;27.75;19.87;;;;;;;10.67;56.19;95594.20;1651086;85;21494;-61
2021/11/09 12:08:40;;;;;;;16.05;12.03;;;;;;;11.55;54.45;95590.28;1658480;85;21039;-61
2021/11/09 12:11:10;;;;;;;45.30;29.67;;;;;;;12.91;51.67;95593.95;1655100;83;21072;-63
2021/11/09 12:13:59;;;;;;;19.55;13.25;;;;;;;13.78;49.06;95594.48;1656499;84;21143;-64
2021/11/09 12:16:56;;;;;;;13.53;5.85;;;;;;;14.20;48.23;95598.56;1651124;83;21080;-62
2021/11/09 12:19:49;;;;;;;9.10;4.87;;;;;;;15.06;46.41;95597.27;1640676;84;21010;-64
2021/11/09 12:22:23;;;;;;;5.80;4.50;;;;;;;15.46;44.01;95596.67;1635919;84;21622;-62
2021/11/09 12:24:58;;;;;;;11.10;4.87;;;;;;;14.89;44.45;95605.66;1629142;84;21516;-64
2021/11/09 12:27:58;;;;;;;5.37;4.03;;;;;;;14.09;45.91;95611.97;1672295;83;21155;-61
2021/11/09 12:30:46;;;;;;;5.28;3.95;;;;;;;13.36;47.61;95624.31;1624056;85;21029;-63
2021/11/09 12:33:20;;;;;;;7.60;4.08;;;;;;;12.78;48.74;95630.44;1658264;83;21575;-65
2021/11/09 12:36:00;;;;;;;16.05;5.60;;;;;;;12.31;50.16;95619.01;1693230;81;21038;-63
2021/11/09 12:38:36;;;;;;;16.60;6.15;;;;;;;11.96;51.24;95620.77;1679771;81;21047;-62
2021/11/09 12:41:14;;;;;;;8.05;4.30;;;;;;;11.69;51.86;95623.03;1682314;81;21160;-62
2021/11/09 12:43:47;;;;;;;10.85;5.62;;;;;;;11.40;52.17;95631.83;1690952;81;21074;-59
2021/11/09 12:46:37;;;;;;;9.60;5.65;;;;;;;11.15;52.91;95631.63;1693286;81;21086;-62
2021/11/09 12:49:19;;;;;;;7.12;4.83;;;;;;;11.04;53.45;95633.08;1681619;82;21017;-61
2021/11/09 12:51:51;;;;;;;7.30;5.37;;;;;;;10.87;53.68;95637.79;1675488;82;21017;-58
2021/11/09 12:54:20;;;;;;;6.43;5.07;;;;;;;10.69;54.41;95633.86;1679771;82;21765;-62
2021/11/09 12:56:57;;;;;;;8.00;5.17;;;;;;;10.54;54.78;95644.22;1673196;82;21020;-61
2021/11/09 12:59:31;;;;;;;8.78;5.17;;;;;;;10.42;55.29;95643.48;1680295;82;21077;-64
2021/11/09 13:02:15;;;;;;;4.83;3.83;;;;;;;10.37;55.63;95642.00;1673249;82;21089;-62
2021/11/09 13:04:34;;;;;;;5.83;4.97;;;;;;;10.24;55.63;95651.31;1676421;82;21159;-63
2021/11/09 13:09:48;;;;;;;5.45;4.28;;;;;;;10.04;56.74;95660.94;1672369;82;21047;-62
2021/11/09 13:12:20;;;;;;;5.67;4.83;;;;;;;9.98;56.92;95668.68;1675052;82;21153;-60
2021/11/09 13:14:59;;;;;;;12.98;6.47;;;;;;;9.84;57.34;95668.92;1684008;82;21125;-63
2021/11/09 13:17:42;;;;;;;9.28;5.78;;;;;;;9.83;57.68;95668.14;1681271;82;21045;-61
2021/11/09 13:20:38;;;;;;;7.65;5.85;;;;;;;9.83;57.61;95664.63;1675824;81;21068;-56
2021/11/09 13:22:58;;;;;;;7.30;5.55;;;;;;;9.89;57.68;95664.31;1679465;82;22114;-60
2021/11/09 13:25:34;;;;;;;17.50;7.95;;;;;;;9.97;57.49;95674.00;1687586;82;21094;-63
2021/11/09 13:28:14;;;;;;;9.83;6.12;;;;;;;10.01;57.62;95673.33;1686250;83;21406;-63
2021/11/09 13:30:42;;;;;;;15.65;6.30;;;;;;;10.10;57.38;95669.45;1686450;82;21059;-65
2021/11/09 13:33:11;;;;;;;11.83;6.33;;;;;;;10.15;57.15;95671.11;1672811;83;21107;-62
2021/11/09 13:35:43;;;;;;;12.90;5.78;;;;;;;10.25;56.98;95680.36;1639301;84;20927;-60
2021/11/09 13:38:17;;;;;;;10.63;5.92;;;;;;;10.33;56.95;95673.55;1629295;85;21526;-60
2021/11/09 13:40:53;;;;;;;10.95;6.70;;;;;;;10.33;56.52;95677.67;1638014;84;21067;-62
2021/11/09 13:43:24;;;;;;;10.03;5.70;;;;;;;10.30;56.67;95686.16;1606792;85;21693;-65
2021/11/09 13:46:09;;;;;;;14.78;5.90;;;;;;;10.26;56.84;95683.28;1633914;85;21156;-65
2021/11/09 13:48:38;;;;;;;17.85;6.42;;;;;;;10.24;57.14;95680.19;1632228;85;21117;-62
2021/11/09 13:51:09;;;;;;;7.08;5.55;;;;;;;10.19;57.43;95698.55;1636101;85;21046;-64
2021/11/09 13:53:41;;;;;;;14.18;8.58;;;;;;;10.24;57.58;95700.81;1635382;85;21249;-64
2021/11/09 13:56:19;;;;;;;16.17;11.18;;;;;;;10.60;57.39;95698.92;1655396;83;21041;-62
2021/11/09 13:59:00;;;;;;;12.05;8.73;;;;;;;10.80;56.50;95699.09;1617744;85;21195;-63
2021/11/09 14:02:11;;;;;;;12.28;8.25;;;;;;;10.99;55.98;95694.16;1615467;83;21180;-64